Davis, California
Current Conditions -  °F | °C
As of 8:27 AM on Saturday 25 Oct 2014 (Local Time) from KSMF Reporting Station
Overcast Overcast  
Wind Chill: 61°   Ceiling: 3200
Heat Index: 61°   Visibility: 8mi
Dew Point: 55°   Wind: 12mph
Humidity: 82%   Direction: 180°S
Pressure: 29.98"   Gusts: NA
Location:  38.55°N, 121.74°W
Report Text: KSMF 251527Z 18010KT 8SM FEW008 BKN032 OVC050 16/13 A2998 RMK AO2 RAB21E24 P0004 $
Loading
Personal Weather Stations






























Interactive Weather Map
Tropical Storm Tracking
New forecast layout! Learn more

10-Day Weather Forecast

Advertisements
Track Severe Weather on mobile